Seattle, WA (98199)

7:52 PM PDT on March 30, 2015 (GMT -0700)
Magnolia - MaxHome | | Change Station
CLOSE
Current Station
Personal Weather Station
Location: Seattle, WA
Elevation: 226 ft
Nearby Weather Stations

Elev 226 ft 47.65 °N, 122.40 °W | Updated 15 seconds ago

Mostly Cloudy
Mostly Cloudy
58.5 °F
Feels Like 58.5 °F
N
0.0
Wind Variable Wind from SSW
Gusts 5.0 mph

Today
High -- | Low -- °F
--% Chance of Precip.
Yesterday
High -- | Low -- °F
Precip. -- in
6:52 AM 7:36 PM
Waxing Gibbous, 84% visible
Pressure 29.87 in
Visibility 10.0 miles
Clouds Few 3000 ft
Scattered Clouds 15000 ft
Mostly Cloudy 22000 ft
Dew Point 49 °F
Humidity 70%
Rainfall 0.00 in
Snow Depth Not available.
UV 0 out of 12
Pollen 11.80 out of 12
Air Quality Not available.
Flu Activity Not available.
METAR KBFI 310153Z VRB05KT 10SM FEW030 SCT150 BKN220 17/08 A2987 RMK AO2 SLP114 T01670078

More Conditions Fewer Conditions

Pressure 29.87 in
Visibility 10.0 miles
Clouds Few 3000 ft
Scattered Clouds 15000 ft
Mostly Cloudy 22000 ft
Dew Point 49 °F
Humidity 70%
Rainfall 0.00 in
Snow Depth Not available.
UV 0 out of 12
Pollen 11.80 out of 12
Air Quality Not available.
Flu Activity Not available.
METAR KBFI 310153Z VRB05KT 10SM FEW030 SCT150 BKN220 17/08 A2987 RMK AO2 SLP114 T01670078

More Conditions Fewer Conditions

10-Day Weather Forecast

Almanac

Astronomy

Mar. 30, 2015 Rise Set
Actual Time
Civil Twilight
Nautical Twilight
Astronomical Twilight
Moon
Length of Visible Light
Length of Day
Tomorrow will be .
, % of the Moon is Illuminated

Today's Extremes

State Highs State Lows

Community

WunderPhotos

Upload Photos

1,809,675 photos uploaded!

WunderBlogs® & News

Nearby

Air Quality

  Air Quality AQ Index Pollutant
Not available.

Snow Depth

Station Depth Elevation

Earthquake Activity

City Distance Mag. Time & Date
Minimum magnitude displayed is 2.5.

Coastal Water Temperatures

Place Temperature

Stations

Nearby Weather Stations

Station Location Temp. Windchill Dew Point Humidity Wind Precip. Elev Updated Type